Etusivu
METAR-TAF:

METAR-TAF

Lentoasemat :

Logan County Airport

Lincoln, Illinois, Yhdysvallat

Leveyspiiri: 40-09-31N, Pituuspiiri: 089-20-06W, korkeus merenpinnasta: 182 m

Tämänhetkinen sää

Tämä raportti tehtiin 22 minuuttia sitten, kello 07.35 UTC
tyyntä
Lämpötila 10°C
Kosteus 87%
Ilmanpaine 1014 hPa
Näkyvyys: 16.1 km
selkeää

METAR: KAAA 290735Z AUTO 00000KT 10SM CLR 10/08 A2993 RMK AO2 T01020075

Aika: 02:57 (07:57 UTC)


TAF: puuttuu

Säähavainnot ja -ennusteet yli 4000 lentoasemalta (METAR- ja TAF-raportit).

Käytössä olevat sääasemat on merkitty karttaan keltaisilla ja punaisilla pisteillä.

Aseta hiiri pisteen päälle nähdäksesi sääaseman nimen.

Klikkaa sitten nähdäksesi säähavainnot ja -ennusteet.

Kartan vaihtaminen: klikkaa mustalla rastilla varustettuja vihreitä pisteitä, niin voit zoomata sisään; viivalla varustettua vihreää pistettä, niin voit zoomata ulos tai vihreitä nuolia, niin pääset viereisille kartoille.


METAR-TAF: